createdAt,value
2017-11-21T00:00:47.880Z,97410.41
2017-11-21T00:01:50.673Z,97406.62
2017-11-21T00:02:53.399Z,97413.85
2017-11-21T00:03:56.194Z,97412.00
2017-11-21T00:04:59.377Z,97416.31
2017-11-21T00:06:02.112Z,97405.09
2017-11-21T00:07:04.893Z,97407.59
2017-11-21T00:08:07.548Z,97404.70
2017-11-21T00:09:10.545Z,97412.95
2017-11-21T00:10:13.149Z,97410.44
2017-11-21T00:11:16.257Z,97412.56
2017-11-21T00:12:19.055Z,97410.58
2017-11-21T00:13:21.941Z,97409.08
2017-11-21T00:14:24.819Z,97414.12
2017-11-21T00:15:27.612Z,97413.76
2017-11-21T00:16:30.410Z,97407.45
2017-11-21T00:17:33.804Z,97413.49
2017-11-21T00:18:36.608Z,97416.64
2017-11-21T00:19:39.422Z,97402.61
2017-11-21T00:20:42.287Z,97409.87
2017-11-21T00:21:45.160Z,97406.46
2017-11-21T00:22:47.903Z,97414.29
2017-11-21T00:23:51.153Z,97411.27
2017-11-21T00:24:53.912Z,97412.83
2017-11-21T00:25:56.731Z,97410.23
2017-11-21T00:26:59.507Z,97417.37
2017-11-21T00:28:02.325Z,97412.00
2017-11-21T00:29:05.104Z,97409.91
2017-11-21T00:30:08.408Z,97414.32
2017-11-21T00:31:11.153Z,97422.09
2017-11-21T00:32:13.930Z,97414.95
2017-11-21T00:33:16.694Z,97408.84
2017-11-21T00:34:19.492Z,97417.64
2017-11-21T00:35:22.124Z,97411.80
2017-11-21T00:36:25.071Z,97418.83
2017-11-21T00:37:27.586Z,97410.77
2017-11-21T00:38:30.512Z,97408.22
2017-11-21T00:39:33.325Z,97417.34
2017-11-21T00:40:36.152Z,97427.69
2017-11-21T00:41:38.915Z,97407.78
2017-11-21T00:42:42.699Z,97419.36
2017-11-21T00:43:45.457Z,97419.20
2017-11-21T00:44:48.173Z,97417.37
2017-11-21T00:45:50.893Z,97417.61
2017-11-21T00:46:53.416Z,97417.47
2017-11-21T00:47:56.155Z,97412.00
2017-11-21T00:48:59.152Z,97413.62
2017-11-21T00:50:01.730Z,97422.95
2017-11-21T00:51:04.268Z,97412.16
2017-11-21T00:52:07.035Z,97416.17
2017-11-21T00:53:09.857Z,97415.78
2017-11-21T00:54:12.714Z,97414.75
2017-11-21T00:55:15.808Z,97410.11
2017-11-21T00:56:18.560Z,97403.89
2017-11-21T00:57:21.308Z,97406.02
2017-11-21T00:58:24.080Z,97416.59
2017-11-21T00:59:26.864Z,97411.20
2017-11-21T01:00:29.619Z,97404.06
2017-11-21T01:01:32.799Z,97403.66
2017-11-21T01:02:35.425Z,97408.47
2017-11-21T01:03:38.082Z,97408.67
2017-11-21T01:04:40.699Z,97412.16
2017-11-21T01:05:43.481Z,97402.20
2017-11-21T01:06:46.288Z,97399.14
2017-11-21T01:07:49.460Z,97394.31
2017-11-21T01:08:52.272Z,97399.56
2017-11-21T01:09:55.067Z,97411.97
2017-11-21T01:10:57.821Z,97408.16
2017-11-21T01:12:00.673Z,97394.80
2017-11-21T01:13:03.448Z,97405.89
2017-11-21T01:14:06.695Z,97399.97
2017-11-21T01:15:09.732Z,97404.22
2017-11-21T01:16:12.496Z,97405.52
2017-11-21T01:17:15.394Z,97403.96
2017-11-21T01:18:18.161Z,97400.70
2017-11-21T01:19:21.086Z,97400.77
2017-11-21T01:20:24.099Z,97393.66
2017-11-21T01:21:26.873Z,97407.59
2017-11-21T01:22:29.661Z,97401.94
2017-11-21T01:23:32.355Z,97372.36
2017-11-21T01:24:35.089Z,97386.00
2017-11-21T01:25:37.727Z,97389.22
2017-11-21T01:26:40.714Z,97398.02
2017-11-21T01:27:43.257Z,97389.88
2017-11-21T01:28:45.797Z,97399.98
2017-11-21T01:29:48.328Z,97398.89
2017-11-21T01:30:50.839Z,97390.62
2017-11-21T01:31:53.432Z,97402.63
2017-11-21T01:32:56.333Z,97402.14
2017-11-21T01:33:58.919Z,97394.08
2017-11-21T01:35:01.472Z,97398.77
2017-11-21T01:36:04.271Z,97401.19
2017-11-21T01:37:07.042Z,97397.78
2017-11-21T01:38:10.061Z,97393.87
2017-11-21T01:39:13.024Z,97397.65
2017-11-21T01:40:15.769Z,97399.63
2017-11-21T01:41:18.537Z,97391.12
2017-11-21T01:42:21.315Z,97410.47
2017-11-21T01:43:24.115Z,97396.72
2017-11-21T01:44:26.736Z,97405.62
2017-11-21T01:45:29.836Z,97395.91
2017-11-21T01:46:32.609Z,97397.86
2017-11-21T01:47:35.426Z,97400.97
2017-11-21T01:48:38.177Z,97396.59
2017-11-21T01:49:41.000Z,97398.94
2017-11-21T01:50:43.796Z,97395.84
2017-11-21T01:51:47.080Z,97408.94
2017-11-21T01:52:49.857Z,97413.29
2017-11-21T01:53:52.672Z,97403.00
2017-11-21T01:54:55.441Z,97405.97
2017-11-21T01:55:58.203Z,97399.47
2017-11-21T01:57:00.984Z,97402.32
2017-11-21T01:58:04.079Z,97403.56
2017-11-21T01:59:06.873Z,97401.49
2017-11-21T02:00:09.593Z,97406.66
2017-11-21T02:01:12.355Z,97395.15
2017-11-21T02:02:15.146Z,97399.16
2017-11-21T02:03:17.985Z,97400.22
2017-11-21T02:04:21.155Z,97408.63
2017-11-21T02:05:23.936Z,97411.70
2017-11-21T02:06:26.674Z,97400.11
2017-11-21T02:07:29.487Z,97400.62
2017-11-21T02:08:32.287Z,97401.09
2017-11-21T02:09:35.211Z,97405.43
2017-11-21T02:10:38.358Z,97408.11
2017-11-21T02:11:41.124Z,97406.75
2017-11-21T02:12:43.887Z,97413.60
2017-11-21T02:13:46.649Z,97410.72
2017-11-21T02:14:49.437Z,97406.38
2017-11-21T02:15:52.308Z,97416.34
2017-11-21T02:16:55.532Z,97412.86
2017-11-21T02:17:58.324Z,97407.27
2017-11-21T02:19:01.120Z,97412.19
2017-11-21T02:20:03.935Z,97411.82
2017-11-21T02:21:06.759Z,97412.98
2017-11-21T02:22:09.532Z,97403.56
2017-11-21T02:23:12.619Z,97403.13
2017-11-21T02:24:15.368Z,97402.97
2017-11-21T02:25:18.184Z,97407.91
2017-11-21T02:26:21.003Z,97402.84
2017-11-21T02:27:23.816Z,97405.17
2017-11-21T02:28:26.563Z,97406.97
2017-11-21T02:29:29.705Z,97413.52
2017-11-21T02:30:32.397Z,97402.03
2017-11-21T02:31:35.483Z,97402.00
2017-11-21T02:32:38.101Z,97398.88
2017-11-21T02:33:40.735Z,97404.86
2017-11-21T02:34:43.389Z,97394.73
2017-11-21T02:35:46.355Z,97402.27
2017-11-21T02:36:49.004Z,97402.48
2017-11-21T02:37:51.644Z,97390.62
2017-11-21T02:38:54.270Z,97398.51
2017-11-21T02:39:56.870Z,97393.70
2017-11-21T02:40:59.474Z,97394.49
2017-11-21T02:42:02.662Z,97390.38
2017-11-21T02:43:05.306Z,97394.53
2017-11-21T02:44:07.928Z,97386.75
2017-11-21T02:45:10.595Z,97402.80
2017-11-21T02:46:13.241Z,97400.36
2017-11-21T02:47:15.884Z,97394.12
2017-11-21T02:48:19.056Z,97401.75
2017-11-21T02:49:21.690Z,97386.20
2017-11-21T02:50:24.309Z,97396.84
2017-11-21T02:51:26.894Z,97403.17
2017-11-21T02:52:29.480Z,97402.00
2017-11-21T02:53:32.058Z,97400.70
2017-11-21T02:54:35.097Z,97399.28
2017-11-21T02:55:38.037Z,97407.58
2017-11-21T02:56:40.675Z,97402.03
2017-11-21T02:57:43.348Z,97412.64
2017-11-21T02:58:45.941Z,97408.53
2017-11-21T02:59:48.617Z,97407.52
2017-11-21T03:00:51.643Z,97399.56
2017-11-21T03:01:54.262Z,97399.94
2017-11-21T03:02:56.862Z,97402.95
2017-11-21T03:03:59.541Z,97409.53
2017-11-21T03:05:02.165Z,97404.50
2017-11-21T03:06:04.826Z,97397.52
2017-11-21T03:07:07.833Z,97409.03
2017-11-21T03:08:10.475Z,97409.80
2017-11-21T03:09:13.103Z,97405.05
2017-11-21T03:10:15.742Z,97404.91
2017-11-21T03:11:18.353Z,97404.22
2017-11-21T03:12:20.995Z,97400.73
2017-11-21T03:13:24.062Z,97400.58
2017-11-21T03:14:26.703Z,97399.30
2017-11-21T03:15:29.299Z,97397.83
2017-11-21T03:16:31.913Z,97397.06
2017-11-21T03:17:34.537Z,97393.83
2017-11-21T03:18:37.203Z,97391.90
2017-11-21T03:19:40.271Z,97409.64
2017-11-21T03:20:43.005Z,97402.80
2017-11-21T03:21:45.643Z,97399.95
2017-11-21T03:22:48.289Z,97399.16
2017-11-21T03:23:50.909Z,97398.00
2017-11-21T03:24:53.574Z,97400.86
2017-11-21T03:25:56.549Z,97402.99
2017-11-21T03:26:59.360Z,97393.95
2017-11-21T03:28:02.025Z,97395.73
2017-11-21T03:29:04.679Z,97399.89
2017-11-21T03:30:07.302Z,97405.71
2017-11-21T03:31:10.011Z,97404.69
2017-11-21T03:32:13.208Z,97399.48
2017-11-21T03:33:15.783Z,97400.75
2017-11-21T03:34:18.356Z,97402.97
2017-11-21T03:35:20.899Z,97406.46
2017-11-21T03:36:24.167Z,97400.11
2017-11-21T03:37:26.719Z,97404.50
2017-11-21T03:38:29.770Z,97409.70
2017-11-21T03:39:32.418Z,97406.28
2017-11-21T03:40:35.066Z,97407.89
2017-11-21T03:41:37.691Z,97405.14
2017-11-21T03:42:40.313Z,97405.80
2017-11-21T03:43:42.945Z,97400.88
2017-11-21T03:44:45.993Z,97408.58
2017-11-21T03:45:48.621Z,97406.88
2017-11-21T03:46:51.232Z,97416.86
2017-11-21T03:47:53.854Z,97407.78
2017-11-21T03:48:56.501Z,97418.83
2017-11-21T03:49:59.109Z,97410.00
2017-11-21T03:51:02.241Z,97408.72
2017-11-21T03:52:05.113Z,97417.56
2017-11-21T03:53:07.726Z,97417.48
2017-11-21T03:54:10.380Z,97421.50
2017-11-21T03:55:12.978Z,97414.12
2017-11-21T03:56:15.712Z,97416.50
2017-11-21T03:57:18.794Z,97421.95
2017-11-21T03:58:21.447Z,97416.37
2017-11-21T03:59:24.066Z,97415.60
2017-11-21T04:00:26.666Z,97416.27
2017-11-21T04:01:29.311Z,97417.48
2017-11-21T04:02:31.996Z,97413.56
2017-11-21T04:03:34.997Z,97423.70
2017-11-21T04:04:37.610Z,97425.49
2017-11-21T04:05:40.265Z,97422.23
2017-11-21T04:06:42.946Z,97424.99
2017-11-21T04:07:45.591Z,97422.30
2017-11-21T04:08:48.206Z,97422.28
2017-11-21T04:09:51.238Z,97426.17
2017-11-21T04:10:53.873Z,97417.39
2017-11-21T04:11:56.484Z,97419.73
2017-11-21T04:12:59.126Z,97421.56
2017-11-21T04:14:01.766Z,97417.14
2017-11-21T04:15:04.341Z,97423.26
2017-11-21T04:16:07.441Z,97420.55
2017-11-21T04:17:10.050Z,97422.66
2017-11-21T04:18:12.753Z,97432.36
2017-11-21T04:19:15.400Z,97430.30
2017-11-21T04:20:18.087Z,97430.56
2017-11-21T04:21:20.745Z,97432.92
2017-11-21T04:22:23.916Z,97425.37
2017-11-21T04:23:26.561Z,97428.48
2017-11-21T04:24:29.176Z,97426.63
2017-11-21T04:25:31.828Z,97426.11
2017-11-21T04:26:34.434Z,97423.52
2017-11-21T04:27:37.077Z,97420.83
2017-11-21T04:28:40.068Z,97422.02
2017-11-21T04:29:42.726Z,97419.91
2017-11-21T04:30:45.366Z,97428.79
2017-11-21T04:31:47.981Z,97421.75
2017-11-21T04:32:50.682Z,97423.58
2017-11-21T04:33:53.330Z,97426.28
2017-11-21T04:34:56.337Z,97430.55
2017-11-21T04:35:58.971Z,97422.02
2017-11-21T04:37:01.591Z,97424.12
2017-11-21T04:38:04.276Z,97421.66
2017-11-21T04:39:06.894Z,97426.84
2017-11-21T04:40:09.530Z,97432.03
2017-11-21T04:41:12.495Z,97429.09
2017-11-21T04:42:15.138Z,97428.41
2017-11-21T04:43:17.776Z,97427.59
2017-11-21T04:44:20.423Z,97428.93
2017-11-21T04:45:23.038Z,97427.53
2017-11-21T04:46:25.702Z,97429.95
2017-11-21T04:47:28.227Z,97428.19
2017-11-21T04:48:30.773Z,97431.66
2017-11-21T04:49:33.399Z,97441.22
2017-11-21T04:50:36.059Z,97424.06
2017-11-21T04:51:38.726Z,97426.38
2017-11-21T04:52:41.706Z,97423.52
2017-11-21T04:53:44.339Z,97424.16
2017-11-21T04:54:46.999Z,97429.77
2017-11-21T04:55:49.619Z,97426.62
2017-11-21T04:56:52.244Z,97431.68
2017-11-21T04:57:54.866Z,97431.44
2017-11-21T04:58:58.789Z,97430.78
2017-11-21T05:00:01.423Z,97430.63
2017-11-21T05:15:11.925Z,97434.35
2017-11-21T05:16:14.567Z,97419.84
2017-11-21T05:17:17.247Z,97432.44
2017-11-21T05:18:19.914Z,97425.13
2017-11-21T05:19:22.558Z,97420.83
2017-11-21T05:20:25.650Z,97424.73
2017-11-21T05:21:29.035Z,97422.44
2017-11-21T05:22:31.685Z,97417.50
2017-11-21T05:23:34.304Z,97421.50
2017-11-21T05:24:37.070Z,97429.20
2017-11-21T05:25:39.714Z,97429.95
2017-11-21T05:26:42.699Z,97428.69
2017-11-21T05:27:45.336Z,97431.41
2017-11-21T05:28:47.983Z,97425.81
2017-11-21T05:29:50.592Z,97437.38
2017-11-21T05:30:53.231Z,97432.58
2017-11-21T05:31:55.850Z,97440.91
2017-11-21T05:32:59.018Z,97442.24
2017-11-21T05:34:01.655Z,97438.61
2017-11-21T05:35:04.299Z,97434.94
2017-11-21T05:36:06.930Z,97437.54
2017-11-21T05:37:09.616Z,97435.36
2017-11-21T05:38:12.217Z,97429.59
2017-11-21T05:39:15.306Z,97425.20
2017-11-21T05:40:17.926Z,97428.95
2017-11-21T05:41:20.564Z,97425.84
2017-11-21T05:42:23.185Z,97429.61
2017-11-21T05:43:26.802Z,97426.60
2017-11-21T05:44:29.458Z,97433.09
2017-11-21T05:45:32.734Z,97430.34
2017-11-21T05:46:35.391Z,97435.53
2017-11-21T05:47:38.100Z,97433.61
2017-11-21T05:48:40.727Z,97437.24
2017-11-21T05:49:43.375Z,97435.41
2017-11-21T05:50:46.001Z,97433.91
2017-11-21T05:51:48.944Z,97434.72
2017-11-21T05:52:51.500Z,97425.73
2017-11-21T05:53:54.182Z,97437.71
2017-11-21T05:54:56.866Z,97436.02
2017-11-21T05:55:59.556Z,97428.34
2017-11-21T05:57:02.223Z,97436.64
2017-11-21T05:58:05.185Z,97436.38
2017-11-21T05:59:07.866Z,97441.30
2017-11-21T06:00:10.481Z,97431.55
2017-11-21T06:01:13.113Z,97451.41
2017-11-21T06:02:15.740Z,97441.83
2017-11-21T06:03:18.374Z,97444.42
2017-11-21T06:04:21.409Z,97449.59
2017-11-21T06:05:24.017Z,97443.21
2017-11-21T06:06:26.610Z,97439.84
2017-11-21T06:07:29.196Z,97455.69
2017-11-21T06:08:31.770Z,97453.23
2017-11-21T06:09:34.383Z,97454.37
2017-11-21T06:10:37.381Z,97437.11
2017-11-21T06:11:39.958Z,97448.52
2017-11-21T06:12:42.540Z,97454.50
2017-11-21T06:13:45.182Z,97455.91
2017-11-21T06:14:47.785Z,97452.28
2017-11-21T06:15:50.422Z,97457.10
2017-11-21T06:16:53.415Z,97455.78
2017-11-21T06:17:56.034Z,97448.91
2017-11-21T06:18:58.642Z,97458.62
2017-11-21T06:20:01.287Z,97448.24
2017-11-21T06:21:03.908Z,97450.20
2017-11-21T06:22:06.583Z,97445.65
2017-11-21T06:23:09.706Z,97450.70
2017-11-21T06:25:31.647Z,97447.60
2017-11-21T06:26:34.292Z,97448.64
2017-11-21T06:27:36.940Z,97447.45
2017-11-21T06:28:39.561Z,97447.45
2017-11-21T06:29:42.254Z,97438.13
2017-11-21T06:30:44.924Z,97445.01
2017-11-21T06:31:48.000Z,97445.91
2017-11-21T06:32:50.639Z,97445.13
2017-11-21T06:33:53.291Z,97442.55
2017-11-21T06:34:55.920Z,97446.44
2017-11-21T06:35:58.590Z,97453.03
2017-11-21T06:37:01.234Z,97449.80
2017-11-21T06:38:03.887Z,97449.28
2017-11-21T06:39:06.507Z,97445.89
2017-11-21T06:40:09.203Z,97450.42
2017-11-21T06:41:11.833Z,97450.95
2017-11-21T06:42:14.506Z,97449.89
2017-11-21T06:43:17.146Z,97445.61
2017-11-21T06:44:19.878Z,97461.97
2017-11-21T06:45:22.768Z,97462.49
2017-11-21T06:46:25.468Z,97460.53
2017-11-21T06:47:28.266Z,97457.15
2017-11-21T06:48:30.975Z,97459.00
2017-11-21T06:49:33.674Z,97461.68
2017-11-21T06:50:36.337Z,97465.06
2017-11-21T06:51:39.037Z,97458.72
2017-11-21T06:52:42.331Z,97451.70
2017-11-21T06:53:45.023Z,97458.34
2017-11-21T06:54:47.995Z,97455.85
2017-11-21T06:55:50.628Z,97460.78
2017-11-21T06:56:53.289Z,97456.78
2017-11-21T06:57:55.957Z,97468.30
2017-11-21T06:58:58.646Z,97461.42
2017-11-21T07:00:01.347Z,97468.04
2017-11-21T07:01:04.560Z,97463.75
2017-11-21T07:02:07.261Z,97465.19
2017-11-21T07:03:09.926Z,97460.00
2017-11-21T07:04:12.630Z,97453.63
2017-11-21T07:05:15.293Z,97459.62
2017-11-21T07:06:17.945Z,97465.57
2017-11-21T07:07:21.001Z,97471.30
2017-11-21T07:08:23.628Z,97466.77
2017-11-21T07:09:26.393Z,97475.84
2017-11-21T07:10:29.048Z,97476.34
2017-11-21T07:11:31.716Z,97472.47
2017-11-21T07:12:34.356Z,97465.98
2017-11-21T07:13:37.430Z,97479.73
2017-11-21T07:14:40.132Z,97479.08
2017-11-21T07:15:42.781Z,97470.50
2017-11-21T07:16:45.476Z,97490.09
2017-11-21T07:17:48.137Z,97481.41
2017-11-21T07:18:51.818Z,97488.40
2017-11-21T07:19:54.874Z,97497.73
2017-11-21T07:20:57.546Z,97487.23
2017-11-21T07:22:00.245Z,97486.30
2017-11-21T07:23:02.925Z,97491.23
2017-11-21T07:24:05.546Z,97486.94
2017-11-21T07:25:08.173Z,97490.47
2017-11-21T07:26:11.249Z,97492.53
2017-11-21T07:27:14.027Z,97493.43
2017-11-21T07:28:16.680Z,97497.59
2017-11-21T07:29:19.299Z,97488.75
2017-11-21T07:30:21.927Z,97496.94
2017-11-21T07:31:24.620Z,97495.88
2017-11-21T07:32:27.739Z,97492.09
2017-11-21T07:33:30.379Z,97491.98
2017-11-21T07:34:33.041Z,97499.50
2017-11-21T07:35:35.698Z,97492.36
2017-11-21T07:36:38.349Z,97489.47
2017-11-21T07:37:41.038Z,97481.98
2017-11-21T07:38:44.760Z,97489.37
2017-11-21T07:39:47.365Z,97495.70
2017-11-21T07:40:49.919Z,97489.61
2017-11-21T07:41:52.565Z,97492.34
2017-11-21T07:42:55.264Z,97486.77
2017-11-21T07:43:57.915Z,97483.13
2017-11-21T07:45:01.007Z,97495.56
2017-11-21T07:46:03.677Z,97495.17
2017-11-21T07:47:06.378Z,97501.92
2017-11-21T07:48:09.278Z,97495.67
2017-11-21T07:49:12.296Z,97501.39
2017-11-21T07:50:14.962Z,97505.39
2017-11-21T07:51:18.078Z,97505.02
2017-11-21T07:52:20.740Z,97500.20
2017-11-21T07:53:23.388Z,97501.50
2017-11-21T07:54:26.028Z,97510.05
2017-11-21T07:55:28.677Z,97507.86
2017-11-21T07:56:31.225Z,97510.55
2017-11-21T07:57:34.029Z,97493.34
2017-11-21T07:58:36.709Z,97506.42
2017-11-21T07:59:39.387Z,97505.90
2017-11-21T08:00:42.028Z,97508.36
2017-11-21T08:01:44.732Z,97512.48
2017-11-21T08:02:47.345Z,97508.09
2017-11-21T08:03:50.473Z,97526.52
2017-11-21T08:04:53.418Z,97508.89
2017-11-21T08:05:56.173Z,97508.36
2017-11-21T08:06:58.928Z,97504.06
2017-11-21T08:08:01.764Z,97512.91
2017-11-21T08:09:04.630Z,97504.75
2017-11-21T08:10:08.592Z,97511.88
2017-11-21T08:11:11.372Z,97495.41
2017-11-21T08:12:14.329Z,97508.25
2017-11-21T08:13:17.646Z,97508.91
2017-11-21T08:14:20.453Z,97509.17
2017-11-21T08:15:23.149Z,97514.36
2017-11-21T08:16:26.234Z,97509.17
2017-11-21T08:17:29.453Z,97505.28
2017-11-21T08:18:32.253Z,97505.55
2017-11-21T08:19:35.062Z,97501.00
2017-11-21T08:20:37.690Z,97505.39
2017-11-21T08:21:40.252Z,97508.78
2017-11-21T08:22:43.257Z,97503.33
2017-11-21T08:23:46.032Z,97507.62
2017-11-21T08:24:48.796Z,97510.08
2017-11-21T08:25:51.480Z,97507.34
2017-11-21T08:26:54.273Z,97506.87
2017-11-21T08:27:57.076Z,97505.03
2017-11-21T08:29:00.166Z,97506.05
2017-11-21T08:30:03.760Z,97507.24
2017-11-21T08:31:06.508Z,97509.30
2017-11-21T08:32:10.412Z,97511.80
2017-11-21T08:33:13.218Z,97514.09
2017-11-21T08:34:16.051Z,97515.05
2017-11-21T08:35:19.100Z,97511.02
2017-11-21T08:36:21.804Z,97514.91
2017-11-21T08:37:24.622Z,97517.11
2017-11-21T08:38:27.405Z,97505.45
2017-11-21T08:39:30.344Z,97504.16
2017-11-21T08:40:33.241Z,97505.72
2017-11-21T08:41:36.556Z,97513.16
2017-11-21T08:42:39.405Z,97509.91
2017-11-21T08:43:42.184Z,97510.19
2017-11-21T08:44:44.960Z,97508.37
2017-11-21T08:45:47.763Z,97500.20
2017-11-21T08:46:50.492Z,97504.18
2017-11-21T08:47:53.585Z,97499.67
2017-11-21T08:48:56.551Z,97495.63
2017-11-21T08:49:59.375Z,97497.06
2017-11-21T08:51:03.054Z,97501.33
2017-11-21T08:52:05.975Z,97492.11
2017-11-21T08:53:08.869Z,97504.73
2017-11-21T08:54:11.693Z,97509.27
2017-11-21T08:55:14.555Z,97507.83
2017-11-21T08:56:17.352Z,97512.23
2017-11-21T08:57:19.986Z,97511.22
2017-11-21T08:58:22.628Z,97503.06
2017-11-21T08:59:25.561Z,97507.86
2017-11-21T09:00:28.294Z,97513.05
2017-11-21T09:01:30.946Z,97507.08
2017-11-21T09:02:33.629Z,97509.04
2017-11-21T09:03:36.527Z,97513.48
2017-11-21T09:04:39.240Z,97513.88
2017-11-21T09:05:42.494Z,97514.55
2017-11-21T09:06:45.275Z,97511.09
2017-11-21T09:07:47.937Z,97510.88
2017-11-21T09:08:50.555Z,97514.00
2017-11-21T09:09:53.128Z,97513.97
2017-11-21T09:10:55.728Z,97514.44
2017-11-21T09:11:58.631Z,97518.90
2017-11-21T09:13:01.202Z,97519.52
2017-11-21T09:14:03.821Z,97512.73
2017-11-21T09:15:06.474Z,97515.63
2017-11-21T09:16:09.020Z,97515.95
2017-11-21T09:17:12.161Z,97518.42
2017-11-21T09:18:15.357Z,97508.05
2017-11-21T09:19:17.878Z,97509.09
2017-11-21T09:20:21.100Z,97509.83
2017-11-21T09:21:23.709Z,97509.06
2017-11-21T09:22:26.280Z,97509.06
2017-11-21T09:23:28.831Z,97509.48
2017-11-21T09:24:31.746Z,97516.92
2017-11-21T09:25:34.271Z,97503.62
2017-11-21T09:26:36.823Z,97510.19
2017-11-21T09:27:39.439Z,97511.88
2017-11-21T09:28:41.912Z,97514.23
2017-11-21T09:29:44.375Z,97516.83
2017-11-21T09:30:47.932Z,97512.91
2017-11-21T09:31:50.383Z,97510.75
2017-11-21T09:32:53.121Z,97505.44
2017-11-21T09:33:55.598Z,97508.91
2017-11-21T09:34:58.116Z,97511.44
2017-11-21T09:36:00.630Z,97509.25
2017-11-21T09:37:03.845Z,97511.36
2017-11-21T09:38:06.369Z,97511.11
2017-11-21T09:39:08.901Z,97506.84
2017-11-21T09:40:11.498Z,97502.41
2017-11-21T09:41:14.161Z,97509.16
2017-11-21T09:42:16.745Z,97514.11
2017-11-21T09:43:19.315Z,97499.84
2017-11-21T09:44:21.921Z,97512.33
2017-11-21T09:45:24.462Z,97514.29
2017-11-21T09:46:27.088Z,97517.13
2017-11-21T09:47:29.737Z,97513.61
2017-11-21T09:48:32.354Z,97513.45
2017-11-21T09:49:34.894Z,97512.17
2017-11-21T09:50:37.577Z,97509.20
2017-11-21T09:51:40.168Z,97512.75
2017-11-21T09:52:42.809Z,97502.17
2017-11-21T09:53:45.454Z,97514.49
2017-11-21T09:54:48.024Z,97513.98
2017-11-21T09:55:50.600Z,97514.63
2017-11-21T09:56:53.359Z,97512.03
2017-11-21T09:57:55.905Z,97516.20
2017-11-21T09:58:58.789Z,97519.31
2017-11-21T10:00:01.382Z,97527.66
2017-11-21T10:01:03.991Z,97524.10
2017-11-21T10:02:06.598Z,97528.13
2017-11-21T10:03:09.241Z,97537.64
2017-11-21T10:04:11.940Z,97525.42
2017-11-21T10:05:14.995Z,97525.40
2017-11-21T10:06:17.674Z,97526.08
2017-11-21T10:07:20.467Z,97528.69
2017-11-21T10:08:23.096Z,97526.47
2017-11-21T10:09:25.753Z,97534.13
2017-11-21T10:10:28.413Z,97535.40
2017-11-21T10:11:31.427Z,97518.13
2017-11-21T10:12:34.105Z,97535.70
2017-11-21T10:13:36.712Z,97534.38
2017-11-21T10:14:39.414Z,97526.47
2017-11-21T10:15:41.977Z,97534.25
2017-11-21T10:16:44.635Z,97534.52
2017-11-21T10:17:47.724Z,97525.23
2017-11-21T10:18:50.368Z,97529.03
2017-11-21T10:19:53.106Z,97523.27
2017-11-21T10:20:55.671Z,97527.02
2017-11-21T10:21:58.306Z,97531.59
2017-11-21T10:23:01.113Z,97527.38
2017-11-21T10:24:04.189Z,97526.25
2017-11-21T10:25:06.878Z,97519.46
2017-11-21T10:26:09.511Z,97519.95
2017-11-21T10:27:12.648Z,97519.95
2017-11-21T10:28:15.352Z,97519.70
2017-11-21T10:29:17.980Z,97518.58
2017-11-21T10:30:20.951Z,97523.50
2017-11-21T10:32:37.531Z,97524.41
2017-11-21T10:33:40.263Z,97529.84
2017-11-21T10:34:43.095Z,97528.15
2017-11-21T10:35:45.699Z,97519.86
2017-11-21T10:36:48.315Z,97520.52
2017-11-21T10:37:50.858Z,97520.16
2017-11-21T10:38:53.879Z,97518.22
2017-11-21T10:39:56.539Z,97512.62
2017-11-21T10:40:59.196Z,97513.42
2017-11-21T10:42:02.218Z,97516.05
2017-11-21T10:43:04.922Z,97514.58
2017-11-21T10:44:07.551Z,97516.77
2017-11-21T10:45:10.222Z,97515.38
2017-11-21T10:46:12.865Z,97513.30
2017-11-21T10:47:15.673Z,97510.05
2017-11-21T10:48:18.369Z,97508.87
2017-11-21T10:49:21.014Z,97509.41
2017-11-21T10:50:23.709Z,97502.06
2017-11-21T10:51:26.830Z,97512.00
2017-11-21T10:52:29.534Z,97504.37
2017-11-21T10:53:32.193Z,97499.30
2017-11-21T10:54:34.863Z,97498.63
2017-11-21T10:55:38.205Z,97496.80
2017-11-21T10:56:41.089Z,97497.60
2017-11-21T10:57:44.324Z,97494.52
2017-11-21T10:58:47.043Z,97490.59
2017-11-21T11:15:23.890Z,97491.44
2017-11-21T11:16:26.543Z,97488.84
2017-11-21T11:17:29.296Z,97491.44
2017-11-21T11:18:32.206Z,97484.33
2017-11-21T11:19:34.931Z,97479.76
2017-11-21T11:20:38.083Z,97486.79
2017-11-21T11:21:40.767Z,97494.34
2017-11-21T11:22:43.651Z,97482.51
2017-11-21T11:23:46.336Z,97496.39
2017-11-21T11:24:49.021Z,97492.41
2017-11-21T11:25:51.838Z,97476.05
2017-11-21T11:26:54.851Z,97485.79
2017-11-21T11:27:57.469Z,97481.74
2017-11-21T11:29:00.158Z,97478.38
2017-11-21T11:30:02.780Z,97489.17
2017-11-21T11:31:05.502Z,97492.55
2017-11-21T11:32:08.170Z,97487.48
2017-11-21T11:33:11.414Z,97485.64
2017-11-21T11:34:14.135Z,97497.19
2017-11-21T11:35:16.795Z,97493.09
2017-11-21T11:36:19.515Z,97497.20
2017-11-21T11:37:22.147Z,97487.06
2017-11-21T11:38:24.899Z,97485.32
2017-11-21T11:39:27.881Z,97480.83
2017-11-21T11:40:30.559Z,97483.66
2017-11-21T11:41:33.195Z,97475.77
2017-11-21T11:42:35.796Z,97482.23
2017-11-21T11:43:38.715Z,97493.03
2017-11-21T11:44:41.436Z,97477.16
2017-11-21T11:45:44.626Z,97479.77
2017-11-21T11:46:47.330Z,97480.73
2017-11-21T11:47:49.976Z,97474.08
2017-11-21T11:48:52.660Z,97473.19
2017-11-21T11:49:55.311Z,97482.02
2017-11-21T11:50:57.996Z,97467.61
2017-11-21T11:52:00.653Z,97474.23
2017-11-21T11:53:03.625Z,97472.26
2017-11-21T11:54:06.278Z,97458.09
2017-11-21T11:55:09.335Z,97469.14
2017-11-21T11:56:11.978Z,97471.23
2017-11-21T11:57:16.780Z,97479.80
2017-11-21T11:58:19.479Z,97471.75
2017-11-21T11:59:22.130Z,97478.66
2017-11-21T12:00:24.795Z,97472.42
2017-11-21T12:01:27.628Z,97469.81
2017-11-21T12:02:30.312Z,97467.77
2017-11-21T12:03:33.449Z,97474.77
2017-11-21T12:04:36.091Z,97469.04
2017-11-21T12:05:38.748Z,97476.83
2017-11-21T12:06:41.389Z,97483.19
2017-11-21T12:07:44.061Z,97481.92
2017-11-21T12:08:46.785Z,97478.80
2017-11-21T12:09:49.824Z,97485.30
2017-11-21T12:10:52.490Z,97481.00
2017-11-21T12:11:55.169Z,97485.28
2017-11-21T12:12:57.896Z,97484.39
2017-11-21T12:14:00.604Z,97483.25
2017-11-21T12:15:03.244Z,97479.21
2017-11-21T12:16:06.406Z,97480.66
2017-11-21T12:17:09.036Z,97488.05
2017-11-21T12:18:11.726Z,97479.48
2017-11-21T12:19:14.439Z,97483.52
2017-11-21T12:20:17.114Z,97474.28
2017-11-21T12:21:19.753Z,97485.73
2017-11-21T12:22:22.426Z,97479.11
2017-11-21T12:23:25.103Z,97478.58
2017-11-21T12:24:27.860Z,97481.33
2017-11-21T12:25:30.544Z,97475.86
2017-11-21T12:26:33.221Z,97479.76
2017-11-21T12:27:36.178Z,97476.80
2017-11-21T12:28:38.833Z,97468.74
2017-11-21T12:29:41.467Z,97477.30
2017-11-21T12:30:44.129Z,97467.82
2017-11-21T12:31:46.763Z,97473.18
2017-11-21T12:32:49.419Z,97472.35
2017-11-21T12:33:52.538Z,97473.39
2017-11-21T12:34:55.446Z,97469.74
2017-11-21T12:35:58.052Z,97476.63
2017-11-21T12:37:00.792Z,97470.78
2017-11-21T12:38:03.444Z,97483.77
2017-11-21T12:39:06.150Z,97471.19
2017-11-21T12:40:09.143Z,97474.82
2017-11-21T12:41:11.867Z,97468.85
2017-11-21T12:42:14.597Z,97485.21
2017-11-21T12:43:17.245Z,97480.41
2017-11-21T12:44:19.853Z,97471.44
2017-11-21T12:45:22.442Z,97468.44
2017-11-21T12:46:25.613Z,97472.62
2017-11-21T12:47:28.287Z,97477.80
2017-11-21T12:48:30.992Z,97470.76
2017-11-21T12:49:33.673Z,97465.81